| time (UTC) | temp F | wind direction | speed MPH | gust MPH | rain 1hr in | rain 24hr in | rain mn in | humidity % | barometer mb |
| 20260831050032 | 57 | 181 | 1.0 | 2.0 | 0.00 | 0.02 | 0.00 | 93 | 970.1 |
| 20260831045132 | 57 | 201 | 1.0 | 2.0 | 0.00 | 0.02 | 0.00 | 93 | 970.1 |
| 20260831044233 | 57 | 201 | 2.0 | 3.0 | 0.00 | 0.02 | 0.00 | 93 | 970.0 |
| 20260831043332 | 57 | 181 | 2.0 | 3.0 | 0.00 | 0.02 | 0.00 | 93 | 969.9 |
| 20260831042432 | 56 | 176 | 2.0 | 2.0 | 0.00 | 0.02 | 0.00 | 93 | 970.0 |
| 20260831041532 | 56 | 173 | 2.0 | 3.0 | 0.00 | 0.02 | 0.00 | 93 | 969.9 |
| 20260831040632 | 56 | 181 | 2.0 | 2.0 | 0.00 | 0.02 | 0.00 | 93 | 969.8 |
| 20260831035732 | 56 | 178 | 2.0 | 3.0 | 0.00 | 0.02 | 0.00 | 93 | 969.9 |
| 20260831034832 | 56 | 187 | 2.0 | 3.0 | 0.00 | 0.02 | 0.00 | 93 | 969.9 |
| 20260831033933 | 56 | 184 | 2.0 | 3.0 | 0.00 | 0.02 | 0.00 | 93 | 969.9 |
| 20260831033033 | 56 | 182 | 2.0 | 3.0 | 0.00 | 0.02 | 0.00 | 93 | 969.8 |
| 20260831031233 | 56 | 149 | 1.0 | 3.0 | 0.00 | 0.02 | 0.00 | 92 | 970.0 |
| 20260831030332 | 56 | 43 | 0.0 | 1.0 | 0.00 | 0.02 | 0.00 | 92 | 969.9 |
| 20260831025433 | 56 | 15 | 0.0 | 1.0 | 0.00 | 0.02 | 0.00 | 92 | 969.9 |
| 20260831024532 | 56 | 225 | 0.0 | 1.0 | 0.00 | 0.02 | 0.00 | 92 | 969.9 |
| 20260831023633 | 56 | 190 | 1.0 | 2.0 | 0.00 | 0.02 | 0.00 | 92 | 969.8 |
| 20260831022732 | 56 | 176 | 2.0 | 2.0 | 0.00 | 0.02 | 0.00 | 92 | 969.8 |
| 20260831021832 | 56 | 168 | 2.0 | 2.0 | 0.00 | 0.02 | 0.00 | 92 | 969.9 |
| 20260831020933 | 56 | 181 | 2.0 | 2.0 | 0.00 | 0.02 | 0.00 | 92 | 969.8 |
| 20260831020033 | 56 | 182 | 2.0 | 2.0 | 0.00 | 0.02 | 0.00 | 92 | 969.9 |
| 20260831015132 | 56 | 218 | 2.0 | 2.0 | 0.00 | 0.02 | 0.00 | 92 | 970.0 |
| 20260831014233 | 56 | 254 | 2.0 | 3.0 | 0.00 | 0.02 | 0.00 | 92 | 970.0 |
| 20260831013332 | 56 | 217 | 2.0 | 3.0 | 0.00 | 0.02 | 0.00 | 92 | 969.9 |
| 20260831012432 | 56 | 176 | 2.0 | 3.0 | 0.00 | 0.02 | 0.00 | 92 | 969.6 |
| 20260831011532 | 56 | 136 | 3.0 | 4.0 | 0.00 | 0.02 | 0.00 | 91 | 969.8 |
| 20260831010633 | 56 | 61 | 4.0 | 5.0 | 0.00 | 0.02 | 0.00 | 91 | 969.7 |
| 20260831005733 | 56 | 85 | 4.0 | 5.0 | 0.00 | 0.02 | 0.00 | 91 | 969.6 |
| 20260831004832 | 57 | 58 | 2.0 | 3.0 | 0.00 | 0.02 | 0.00 | 91 | 969.7 |
| 20260831003932 | 57 | 338 | 2.0 | 4.0 | 0.00 | 0.02 | 0.00 | 91 | 969.9 |
| 20260831003032 | 58 | 201 | 1.0 | 2.0 | 0.00 | 0.04 | 0.00 | 91 | 970.1 |
| 20260831001232 | 58 | 183 | 2.0 | 2.0 | 0.00 | 0.08 | 0.00 | 91 | 970.2 |
| 20260831000333 | 58 | 181 | 2.0 | 2.0 | 0.00 | 0.08 | 0.00 | 90 | 970.3 |
| 20260830235433 | 58 | 195 | 1.0 | 2.0 | 0.00 | 0.08 | 0.00 | 90 | 970.2 |
| 20260830234532 | 58 | 188 | 2.0 | 2.0 | 0.00 | 0.08 | 0.00 | 90 | 970.3 |
| 20260830233632 | 58 | 176 | 2.0 | 2.0 | 0.00 | 0.14 | 0.00 | 90 | 970.2 |
| 20260830231833 | 58 | 190 | 1.0 | 2.0 | 0.00 | 0.14 | 0.00 | 89 | 970.2 |
| 20260830230934 | 58 | 144 | 1.0 | 2.0 | 0.00 | 0.17 | 0.00 | 89 | 970.2 |
| 20260830225132 | 58 | 175 | 3.0 | 3.0 | 0.00 | 0.17 | 0.00 | 89 | 970.1 |
| 20260830224232 | 58 | 176 | 2.0 | 2.0 | 0.00 | 0.17 | 0.00 | 89 | 970.1 |
| 20260830222433 | 58 | 170 | 2.0 | 3.0 | 0.00 | 0.19 | 0.00 | 88 | 970.1 |
| 20260830221533 | 58 | 172 | 2.0 | 3.0 | 0.00 | 0.19 | 0.00 | 88 | 969.9 |
| 20260830220632 | 58 | 178 | 2.0 | 3.0 | 0.00 | 0.19 | 0.00 | 88 | 970.0 |
| 20260830215732 | 58 | 181 | 3.0 | 3.0 | 0.00 | 0.19 | 0.19 | 88 | 970.1 |
| 20260830214833 | 58 | 182 | 3.0 | 4.0 | 0.00 | 0.19 | 0.19 | 88 | 969.9 |
| 20260830213932 | 58 | 173 | 2.0 | 3.0 | 0.00 | 0.19 | 0.19 | 87 | 969.9 |
| 20260830213033 | 58 | 137 | 2.0 | 2.0 | 0.00 | 0.19 | 0.19 | 87 | 969.9 |
| 20260830212133 | 58 | 135 | 1.0 | 2.0 | 0.00 | 0.19 | 0.19 | 87 | 970.0 |
| 20260830211232 | 58 | 135 | 0.0 | 1.0 | 0.00 | 0.19 | 0.19 | 87 | 969.9 |
| 20260830210332 | 58 | 135 | 0.0 | 1.0 | 0.00 | 0.19 | 0.19 | 87 | 969.9 |
| 20260830205434 | 58 | 135 | 1.0 | 2.0 | 0.01 | 0.19 | 0.19 | 87 | 969.9 |
| 20260830204532 | 58 | 135 | 1.0 | 2.0 | 0.01 | 0.19 | 0.19 | 87 | 969.9 |
| 20260830203633 | 58 | 135 | 1.0 | 2.0 | 0.01 | 0.19 | 0.19 | 87 | 969.8 |
| 20260830201833 | 59 | 121 | 1.0 | 2.0 | 0.01 | 0.19 | 0.19 | 86 | 969.9 |
| 20260830200933 | 59 | 181 | 2.0 | 2.0 | 0.01 | 0.19 | 0.19 | 86 | 969.8 |
| 20260830200032 | 59 | 171 | 1.0 | 3.0 | 0.01 | 0.19 | 0.19 | 86 | 969.8 |
| 20260830195133 | 59 | 185 | 1.0 | 2.0 | 0.00 | 0.18 | 0.18 | 85 | 969.7 |
| 20260830194233 | 59 | 175 | 2.0 | 3.0 | 0.00 | 0.18 | 0.18 | 85 | 969.9 |
| 20260830193333 | 60 | 193 | 3.0 | 4.0 | 0.00 | 0.18 | 0.18 | 84 | 969.9 |
| 20260830191533 | 60 | 183 | 3.0 | 4.0 | 0.00 | 0.18 | 0.18 | 83 | 969.8 |
| 20260830190632 | 60 | 184 | 2.0 | 2.0 | 0.00 | 0.18 | 0.18 | 83 | 969.7 |
| 20260830185733 | 60 | 181 | 3.0 | 4.0 | 0.00 | 0.18 | 0.18 | 83 | 969.9 |
| 20260830184833 | 60 | 176 | 3.0 | 4.0 | 0.00 | 0.18 | 0.18 | 83 | 969.9 |
| 20260830183933 | 60 | 191 | 4.0 | 6.0 | 0.00 | 0.18 | 0.18 | 83 | 969.8 |
| 20260830183033 | 60 | 194 | 4.0 | 6.0 | 0.00 | 0.18 | 0.18 | 82 | 969.8 |
| 20260830181233 | 61 | 167 | 4.0 | 5.0 | 0.00 | 0.18 | 0.18 | 83 | 969.7 |
| 20260830180333 | 61 | 153 | 3.0 | 3.0 | 0.00 | 0.18 | 0.18 | 83 | 969.7 |
| 20260830175433 | 61 | 160 | 2.0 | 3.0 | 0.00 | 0.18 | 0.18 | 83 | 969.6 |
| 20260830174533 | 61 | 155 | 2.0 | 4.0 | 0.00 | 0.19 | 0.18 | 83 | 969.6 |
| 20260830172733 | 62 | 162 | 2.0 | 3.0 | 0.00 | 0.19 | 0.18 | 82 | 969.5 |
| 20260830170932 | 63 | 141 | 3.0 | 4.0 | 0.00 | 0.19 | 0.18 | 80 | 969.5 |
| 20260830170033 | 63 | 171 | 3.0 | 4.0 | 0.00 | 0.19 | 0.18 | 78 | 969.4 |
| 20260830165133 | 64 | 169 | 2.0 | 3.0 | 0.00 | 0.19 | 0.18 | 78 | 969.4 |
| 20260830164233 | 63 | 170 | 2.0 | 4.0 | 0.00 | 0.19 | 0.18 | 78 | 969.4 |
| 20260830163333 | 63 | 216 | 2.0 | 4.0 | 0.00 | 0.19 | 0.18 | 78 | 969.3 |
| 20260830160633 | 63 | 185 | 6.0 | 7.0 | 0.00 | 0.19 | 0.18 | 78 | 969.5 |
| 20260830155733 | 63 | 195 | 6.0 | 8.0 | 0.00 | 0.19 | 0.18 | 78 | 969.5 |
| 20260830154833 | 63 | 210 | 7.0 | 9.0 | 0.00 | 0.19 | 0.18 | 78 | 969.4 |
| 20260830153934 | 63 | 196 | 7.0 | 9.0 | 0.00 | 0.19 | 0.18 | 76 | 969.4 |
| 20260830153033 | 64 | 202 | 7.0 | 11.0 | 0.01 | 0.19 | 0.18 | 73 | 969.4 |
| 20260830152133 | 67 | 208 | 7.0 | 11.0 | 0.01 | 0.19 | 0.18 | 70 | 969.3 |
| 20260830151233 | 67 | 187 | 8.0 | 10.0 | 0.01 | 0.19 | 0.18 | 73 | 969.3 |
| 20260830150333 | 65 | 196 | 9.0 | 13.0 | 0.01 | 0.19 | 0.18 | 73 | 969.2 |
| 20260830145434 | 66 | 212 | 7.0 | 11.0 | 0.01 | 0.19 | 0.18 | 70 | 969.4 |
| 20260830144533 | 68 | 228 | 6.0 | 8.0 | 0.01 | 0.19 | 0.18 | 68 | 969.4 |
| 20260830143633 | 68 | 234 | 8.0 | 13.0 | 0.00 | 0.18 | 0.18 | 67 | 969.3 |
| 20260830141833 | 67 | 243 | 10.0 | 12.0 | 0.00 | 0.18 | 0.17 | 68 | 969.2 |
| 20260830140933 | 68 | 197 | 11.0 | 12.0 | 0.00 | 0.18 | 0.17 | 67 | 969.2 |
| 20260830140033 | 67 | 208 | 10.0 | 12.0 | 0.00 | 0.18 | 0.17 | 67 | 969.2 |
| 20260830135133 | 67 | 244 | 7.0 | 11.0 | 0.00 | 0.18 | 0.17 | 70 | 969.3 |
| 20260830134233 | 66 | 208 | 7.0 | 11.0 | 0.00 | 0.18 | 0.17 | 72 | 969.5 |
| 20260830133333 | 66 | 223 | 9.0 | 11.0 | 0.00 | 0.18 | 0.17 | 71 | 969.3 |
| 20260830132433 | 66 | 223 | 10.0 | 15.0 | 0.00 | 0.18 | 0.17 | 73 | 969.3 |
| 20260830131533 | 65 | 221 | 8.0 | 11.0 | 0.00 | 0.18 | 0.17 | 75 | 969.3 |
| 20260830130633 | 65 | 226 | 7.0 | 9.0 | 0.00 | 0.18 | 0.17 | 76 | 969.1 |
| 20260830125733 | 64 | 225 | 7.0 | 11.0 | 0.00 | 0.18 | 0.17 | 76 | 969.2 |
| 20260830124833 | 65 | 208 | 7.0 | 12.0 | 0.00 | 0.18 | 0.17 | 77 | 969.0 |
| 20260830123934 | 65 | 200 | 6.0 | 9.0 | 0.00 | 0.18 | 0.17 | 77 | 969.2 |
| 20260830123033 | 64 | 193 | 4.0 | 7.0 | 0.00 | 0.18 | 0.17 | 78 | 969.2 |
| 20260830121233 | 64 | 164 | 4.0 | 7.0 | 0.00 | 0.18 | 0.17 | 80 | 969.3 |
| 20260830120333 | 63 | 150 | 4.0 | 5.0 | 0.00 | 0.18 | 0.17 | 81 | 969.2 |
| 20260830115434 | 63 | 214 | 6.0 | 11.0 | 0.00 | 0.18 | 0.17 | 81 | 969.1 |
| 20260830113633 | 62 | 233 | 5.0 | 7.0 | 0.00 | 0.18 | 0.17 | 83 | 969.3 |
| 20260830112734 | 61 | 236 | 5.0 | 8.0 | 0.00 | 0.18 | 0.17 | 83 | 969.4 |
| 20260830111833 | 61 | 243 | 7.0 | 12.0 | 0.00 | 0.18 | 0.17 | 83 | 969.4 |
| 20260830110933 | 61 | 210 | 4.0 | 8.0 | 0.00 | 0.34 | 0.17 | 84 | 969.3 |
| 20260830110033 | 61 | 207 | 6.0 | 9.0 | 0.00 | 0.41 | 0.17 | 85 | 969.4 |
| 20260830105133 | 61 | 202 | 4.0 | 6.0 | 0.00 | 0.41 | 0.17 | 86 | 969.3 |
| 20260830104233 | 60 | 196 | 4.0 | 8.0 | 0.00 | 0.56 | 0.17 | 87 | 969.4 |
| 20260830102433 | 60 | 199 | 6.0 | 12.0 | 0.00 | 0.86 | 0.17 | 87 | 969.5 |
| 20260830101533 | 60 | 200 | 5.0 | 8.0 | 0.00 | 0.86 | 0.17 | 87 | 969.4 |
| 20260830100633 | 60 | 183 | 5.0 | 8.0 | 0.00 | 0.86 | 0.17 | 87 | 969.2 |
| 20260830095733 | 60 | 191 | 4.0 | 6.0 | 0.00 | 0.86 | 0.17 | 87 | 969.4 |
| 20260830094833 | 60 | 204 | 5.0 | 8.0 | 0.00 | 0.86 | 0.17 | 87 | 969.3 |
| 20260830093934 | 60 | 213 | 5.0 | 7.0 | 0.00 | 0.98 | 0.17 | 87 | 969.3 |
| 20260830092133 | 59 | 191 | 6.0 | 11.0 | 0.00 | 1.52 | 0.17 | 88 | 969.3 |
| 20260830091233 | 59 | 208 | 8.0 | 10.0 | 0.00 | 1.52 | 0.17 | 89 | 969.2 |
| 20260830090333 | 58 | 195 | 7.0 | 9.0 | 0.00 | 1.72 | 0.17 | 89 | 969.1 |
| 20260830085433 | 59 | 208 | 5.0 | 8.0 | 0.00 | 1.72 | 0.17 | 89 | 969.1 |
| 20260830084533 | 59 | 196 | 5.0 | 8.0 | 0.00 | 1.72 | 0.17 | 89 | 969.2 |
| 20260830083633 | 59 | 212 | 6.0 | 10.0 | 0.00 | 1.78 | 0.17 | 89 | 969.2 |
| 20260830082733 | 59 | 203 | 6.0 | 10.0 | 0.00 | 1.78 | 0.17 | 89 | 969.3 |
| 20260830081833 | 59 | 197 | 6.0 | 10.0 | 0.00 | 1.78 | 0.17 | 89 | 969.0 |
| 20260830080033 | 59 | 194 | 6.0 | 8.0 | 0.00 | 1.78 | 0.17 | 89 | 969.0 |
| 20260830075133 | 59 | 184 | 5.0 | 7.0 | 0.00 | 1.78 | 0.17 | 89 | 968.9 |
| 20260830074233 | 59 | 204 | 6.0 | 8.0 | 0.00 | 1.78 | 0.17 | 88 | 969.1 |
| 20260830073333 | 59 | 217 | 6.0 | 8.0 | 0.00 | 1.78 | 0.17 | 88 | 968.9 |
| 20260830072434 | 59 | 190 | 6.0 | 9.0 | 0.00 | 1.78 | 0.17 | 89 | 969.1 |
| 20260830071533 | 59 | 196 | 7.0 | 11.0 | 0.00 | 1.78 | 0.17 | 89 | 968.9 |
| 20260830070634 | 59 | 211 | 5.0 | 8.0 | 0.00 | 1.78 | 0.17 | 89 | 968.9 |
| 20260830065733 | 59 | 201 | 5.0 | 8.0 | 0.00 | 1.78 | 0.17 | 89 | 969.0 |
| 20260830063933 | 58 | 200 | 5.0 | 7.0 | 0.00 | 1.78 | 0.17 | 90 | 968.8 |
| 20260830062133 | 58 | 191 | 4.0 | 5.0 | 0.00 | 1.91 | 0.17 | 90 | 968.7 |
| 20260830061233 | 58 | 188 | 6.0 | 8.0 | 0.00 | 1.91 | 0.17 | 91 | 968.8 |
| 20260830060333 | 58 | 196 | 7.0 | 10.0 | 0.00 | 2.00 | 0.17 | 91 | 968.8 |
| 20260830055434 | 58 | 208 | 7.0 | 11.0 | 0.00 | 2.00 | 0.17 | 91 | 968.7 |
| 20260830054533 | 57 | 231 | 6.0 | 8.0 | 0.00 | 2.00 | 0.17 | 91 | 968.7 |
| 20260830053633 | 57 | 215 | 7.0 | 11.0 | 0.00 | 2.13 | 0.17 | 91 | 968.8 |
| 20260830052734 | 57 | 197 | 5.0 | 8.0 | 0.00 | 2.13 | 0.17 | 91 | 968.7 |
| 20260830051833 | 57 | 193 | 7.0 | 9.0 | 0.00 | 2.13 | 0.17 | 91 | 968.8 |